Time;durP1;ratioP1;P1;durP2;ratioP2;P2;SDS_P1;SDS_P2;PMS_P1;PMS_P2;Temp;Humidity;BMP_temperature;BMP_pressure;BME280_temperature;BME280_humidity;BME280_pressure;Samples;Min_cycle;Max_cycle;Signal;HPM_P1;HPM_P2
2020/12/29 00:02:06;;;;;;;2.73;1.70;;;5.60;82.30;;;5.19;76.63;94731.19;5048465;28;20632;-71
2020/12/29 00:04:34;;;;;;;2.23;2.03;;;5.60;81.80;;;5.24;76.52;94728.97;5071432;28;20662;-70
2020/12/29 00:07:02;;;;;;;3.23;2.03;;;5.70;81.70;;;5.24;77.29;94731.53;5052796;28;21297;-71
2020/12/29 00:09:29;;;;;;;2.50;2.00;;;5.70;81.70;;;5.26;77.55;94728.81;5074478;28;20637;-70
2020/12/29 00:11:57;;;;;;;2.53;1.97;;;5.70;81.90;;;5.33;77.00;94735.78;5039692;28;20663;-72
2020/12/29 00:14:26;;;;;;;3.43;1.93;;;5.70;82.20;;;5.36;76.69;94739.81;5054424;28;20633;-73
2020/12/29 00:16:54;;;;;;;2.77;1.80;;;5.80;81.70;;;5.40;76.73;94741.16;5071763;28;20616;-72
2020/12/29 00:19:24;;;;;;;2.37;2.00;;;5.80;81.70;;;5.39;76.22;94740.31;5072468;28;20677;-72
2020/12/29 00:21:53;;;;;;;3.90;1.80;;;5.80;81.50;;;5.44;76.55;94738.09;5071344;28;20648;-71
2020/12/29 00:24:20;;;;;;;4.30;2.10;;;5.80;82.10;;;5.51;76.00;94736.50;5068858;28;20725;-71
2020/12/29 00:27:04;;;;;;;1.73;1.50;;;5.90;81.30;;;5.55;75.81;94748.13;5069449;28;20689;-71
2020/12/29 00:29:33;;;;;;;1.90;1.43;;;6.00;81.10;;;5.55;76.38;94748.13;5070462;28;20758;-71
2020/12/29 00:32:03;;;;;;;1.50;1.20;;;6.00;81.10;;;5.57;76.79;94753.16;5068837;28;20632;-71
2020/12/29 00:34:30;;;;;;;3.37;1.30;;;6.00;81.00;;;5.51;77.58;94746.81;5069263;28;20727;-71
2020/12/29 00:36:58;;;;;;;2.20;1.10;;;5.90;81.70;;;5.63;76.83;94746.38;5071525;28;20643;-72
2020/12/29 00:39:26;;;;;;;1.53;1.40;;;6.00;82.30;;;5.64;77.49;94742.81;5067161;28;21289;-72
2020/12/29 00:41:56;;;;;;;1.60;1.20;;;6.00;82.40;;;5.67;77.47;94754.63;5068954;28;20739;-71
2020/12/29 00:44:25;;;;;;;0.90;0.80;;;6.10;82.50;;;5.76;77.44;94761.47;5067338;28;21226;-72
2020/12/29 00:46:54;;;;;;;1.40;1.00;;;6.10;82.40;;;5.73;77.60;94756.59;5037022;28;20627;-72
2020/12/29 00:49:22;;;;;;;1.40;0.87;;;6.20;82.40;;;5.71;77.46;94768.84;5051418;28;20646;-72
2020/12/29 00:51:52;;;;;;;1.23;1.00;;;6.10;82.10;;;5.61;77.34;94758.66;5052606;28;20648;-72
2020/12/29 00:54:23;;;;;;;1.27;0.80;;;6.00;82.40;;;5.64;77.38;94757.53;5053327;28;21261;-71
2020/12/29 00:56:51;;;;;;;1.00;0.87;;;6.00;82.80;;;5.71;77.84;94767.09;5052757;28;20652;-72
2020/12/29 00:59:21;;;;;;;1.10;0.90;;;6.10;83.20;;;5.67;78.06;94767.56;5051145;28;20648;-71
2020/12/29 01:01:55;;;;;;;0.97;0.77;;;6.10;82.80;;;5.74;77.86;94769.41;5067906;28;20628;-72
2020/12/29 01:04:31;;;;;;;1.90;0.93;;;6.10;83.20;;;5.76;77.78;94775.22;5066201;28;20667;-71
2020/12/29 01:07:04;;;;;;;1.33;0.83;;;6.20;83.20;;;5.83;78.18;94775.38;5051034;28;20633;-70
2020/12/29 01:09:34;;;;;;;1.37;0.80;;;6.20;83.30;;;5.87;77.24;94784.44;5041560;28;20727;-72
2020/12/29 01:12:03;;;;;;;1.20;0.90;;;6.30;83.20;;;5.92;77.83;94789.94;5069887;28;20640;-72
2020/12/29 01:14:32;;;;;;;1.47;0.90;;;6.30;83.50;;;5.95;77.52;94781.88;5062663;28;21229;-71
2020/12/29 01:17:08;;;;;;;1.33;0.80;;;6.30;83.10;;;5.98;77.08;94778.97;5054681;28;22768;-72
2020/12/29 01:19:35;;;;;;;1.20;0.97;;;6.40;82.80;;;6.03;77.40;94787.06;5067607;28;20681;-72
2020/12/29 01:22:03;;;;;;;1.77;0.80;;;6.40;82.70;;;6.08;77.48;94784.81;5066840;28;20627;-70
2020/12/29 01:24:30;;;;;;;2.17;1.03;;;6.50;83.00;;;6.11;77.87;94786.09;5067068;28;20752;-70
2020/12/29 01:26:58;;;;;;;0.90;0.80;;;6.50;83.20;;;6.08;77.30;94789.00;5049714;28;20663;-71
2020/12/29 01:29:25;;;;;;;1.57;1.10;;;6.50;82.50;;;6.07;77.07;94798.72;5051764;28;20657;-72
2020/12/29 01:31:53;;;;;;;1.10;0.90;;;6.50;82.90;;;6.03;76.25;94794.81;5068481;28;20639;-72
2020/12/29 01:34:21;;;;;;;1.23;0.80;;;6.50;81.50;;;6.00;76.48;94800.31;5069404;28;21071;-72
2020/12/29 01:36:49;;;;;;;1.00;0.90;;;6.40;81.50;;;5.99;76.94;94794.34;5070721;28;20754;-72
2020/12/29 01:39:16;;;;;;;2.50;0.90;;;6.40;82.00;;;5.98;77.36;94797.88;5072559;28;20628;-70
2020/12/29 01:41:44;;;;;;;0.90;0.60;;;6.40;82.00;;;6.03;77.27;94794.81;5067316;28;20651;-72
2020/12/29 01:44:13;;;;;;;0.90;0.80;;;6.40;82.20;;;6.03;77.80;94782.72;5057708;28;20657;-72
2020/12/29 01:46:43;;;;;;;0.63;0.57;;;6.40;82.70;;;6.03;78.28;94792.22;5075153;28;20720;-72
2020/12/29 01:49:11;;;;;;;0.80;0.80;;;6.40;83.40;;;5.95;79.07;94807.72;5069102;28;20742;-72
2020/12/29 01:51:41;;;;;;;1.30;0.90;;;6.40;84.10;;;5.91;79.39;94811.59;5077721;28;20980;-71
2020/12/29 01:54:08;;;;;;;1.13;0.80;;;6.30;84.60;;;5.87;79.97;94805.13;5070149;28;20628;-71
2020/12/29 01:56:38;;;;;;;1.10;0.70;;;6.20;85.80;;;5.88;80.13;94799.81;5064264;28;20664;-71
2020/12/29 01:59:09;;;;;;;1.27;0.70;;;6.30;86.30;;;5.93;80.67;94810.47;5072200;28;20616;-71
2020/12/29 02:01:38;;;;;;;1.37;0.70;;;6.30;86.90;;;5.99;80.74;94802.09;5068733;28;20664;-72
2020/12/29 02:04:08;;;;;;;3.90;0.60;;;6.40;87.00;;;6.03;80.30;94811.16;5067996;28;20674;-71
2020/12/29 02:06:37;;;;;;;0.50;0.40;;;6.40;87.10;;;5.90;81.56;94805.63;5052179;28;20979;-72
2020/12/29 02:09:07;;;;;;;1.90;0.50;;;6.30;88.00;;;5.82;82.40;94818.53;5064578;28;20663;-72
2020/12/29 02:11:35;;;;;;;0.70;0.50;;;6.20;89.00;;;5.79;82.33;94811.09;5070819;28;20674;-72
2020/12/29 02:14:08;;;;;;;0.70;0.60;;;6.20;89.50;;;5.81;82.20;94811.72;5069072;28;21229;-72
2020/12/29 02:16:37;;;;;;;0.70;0.60;;;6.20;90.00;;;5.87;82.51;94808.50;5061689;28;21027;-71
2020/12/29 02:19:06;;;;;;;0.90;0.50;;;6.20;90.10;;;5.92;82.70;94802.88;5063099;28;21195;-72
2020/12/29 02:21:34;;;;;;;0.87;0.60;;;6.30;90.10;;;5.99;82.87;94802.09;5073623;28;20720;-72
2020/12/29 02:24:03;;;;;;;0.67;0.50;;;6.30;90.20;;;6.04;82.77;94796.44;5068381;28;20656;-72
2020/12/29 02:26:33;;;;;;;0.90;0.50;;;6.40;90.20;;;6.08;82.73;94808.91;5067778;28;20998;-71
2020/12/29 02:29:03;;;;;;;1.17;0.47;;;6.50;90.20;;;6.14;82.66;94809.06;5067925;28;20634;-70
2020/12/29 02:31:31;;;;;;;1.33;0.80;;;6.50;90.10;;;6.19;82.63;94812.00;5058422;28;20738;-71
2020/12/29 02:34:00;;;;;;;0.60;0.60;;;6.50;90.00;;;6.26;82.27;94814.75;5069557;28;20636;-71
2020/12/29 02:36:27;;;;;;;0.80;0.60;;;6.60;89.90;;;6.28;82.37;94820.56;5068005;28;20698;-72
2020/12/29 02:38:55;;;;;;;0.80;0.53;;;6.60;89.80;;;6.27;81.86;94824.13;5068520;28;21260;-72
2020/12/29 02:41:23;;;;;;;0.67;0.60;;;6.60;89.60;;;6.29;82.21;94820.41;5067394;28;20747;-69
2020/12/29 02:43:51;;;;;;;0.50;0.50;;;6.70;89.50;;;6.32;82.18;94834.81;5071781;28;21256;-72
2020/12/29 02:46:18;;;;;;;1.20;0.50;;;6.70;89.50;;;6.34;81.35;94838.84;5073347;28;20659;-72
2020/12/29 02:48:46;;;;;;;0.70;0.57;;;6.70;88.80;;;6.38;81.60;94836.78;5072082;28;20674;-72
2020/12/29 02:51:14;;;;;;;0.80;0.50;;;6.80;88.70;;;6.39;80.54;94838.38;5054386;28;20620;-72
2020/12/29 02:53:42;;;;;;;0.90;0.50;;;6.80;87.70;;;6.42;80.84;94838.06;5072629;28;20735;-72
2020/12/29 02:56:10;;;;;;;1.20;0.50;;;6.80;87.40;;;6.48;80.34;94833.06;5073436;28;20643;-71
2020/12/29 02:58:39;;;;;;;1.03;0.40;;;6.90;87.40;;;6.51;79.91;94840.50;5078222;28;21077;-72
2020/12/29 03:01:06;;;;;;;0.90;0.57;;;6.90;87.10;;;6.52;79.93;94849.88;5080444;28;20968;-71
2020/12/29 03:03:34;;;;;;;1.23;0.53;;;6.90;86.60;;;6.52;79.66;94844.69;5054896;28;20682;-71
2020/12/29 03:06:02;;;;;;;0.90;0.43;;;6.90;86.10;;;6.37;79.07;94841.13;5069730;28;21179;-71
2020/12/29 03:08:31;;;;;;;0.40;0.30;;;6.80;85.20;;;6.25;79.98;94850.16;5073560;28;20635;-71
2020/12/29 03:10:58;;;;;;;1.10;0.40;;;6.60;85.70;;;6.20;80.56;94851.59;5069961;28;21054;-72
2020/12/29 03:13:26;;;;;;;0.60;0.50;;;6.60;86.70;;;6.17;80.83;94846.75;5072388;28;20738;-72
2020/12/29 03:15:54;;;;;;;0.80;0.50;;;6.50;86.90;;;6.19;80.00;94853.41;5054249;28;20693;-72
2020/12/29 03:18:22;;;;;;;0.53;0.37;;;6.50;86.60;;;6.06;80.28;94852.22;5056045;28;20698;-72
2020/12/29 03:20:49;;;;;;;0.60;0.40;;;6.40;86.60;;;6.06;80.90;94864.31;5070418;28;20644;-71
2020/12/29 03:23:17;;;;;;;0.90;0.40;;;6.40;87.10;;;6.05;80.47;94867.91;5070006;28;20655;-72
2020/12/29 03:25:44;;;;;;;0.50;0.30;;;6.40;86.60;;;6.01;80.38;94858.81;5072048;28;21234;-72
2020/12/29 03:28:12;;;;;;;1.07;0.40;;;6.40;86.60;;;5.94;80.89;94881.91;5058659;28;21256;-71
2020/12/29 03:30:39;;;;;;;0.50;0.40;;;6.30;87.30;;;5.91;81.13;94889.16;5079593;28;21159;-71
2020/12/29 03:33:08;;;;;;;1.47;0.40;;;6.30;87.90;;;5.94;82.21;94901.78;5072257;28;20723;-72
2020/12/29 03:35:35;;;;;;;0.43;0.33;;;6.30;88.90;;;5.92;82.29;94893.38;5072014;28;20635;-72
2020/12/29 03:38:03;;;;;;;0.63;0.50;;;6.30;89.50;;;5.92;82.73;94890.78;5070621;28;20636;-71
2020/12/29 03:40:30;;;;;;;0.60;0.40;;;6.30;90.00;;;5.83;83.42;94889.97;5053027;28;20667;-71
2020/12/29 03:42:58;;;;;;;0.40;0.30;;;6.20;90.10;;;5.82;83.38;94908.22;5068048;28;20750;-71
2020/12/29 03:45:25;;;;;;;0.60;0.30;;;6.20;90.60;;;5.80;83.73;94900.59;5068860;28;20776;-70
2020/12/29 03:47:53;;;;;;;1.00;0.30;;;6.20;90.70;;;5.83;84.18;94902.88;5072692;28;20743;-72
2020/12/29 03:50:21;;;;;;;0.97;0.50;;;6.20;90.90;;;5.88;83.23;94915.31;5081243;28;20638;-70
2020/12/29 03:52:49;;;;;;;0.50;0.30;;;6.20;90.70;;;5.90;84.01;94914.22;5069545;28;20635;-72
2020/12/29 03:55:17;;;;;;;1.13;0.40;;;6.30;90.90;;;5.97;83.82;94914.38;5053305;28;20628;-71
2020/12/29 03:57:44;;;;;;;0.87;0.40;;;6.30;90.90;;;6.01;84.42;94931.22;5070156;28;20627;-72
2020/12/29 04:00:12;;;;;;;0.40;0.30;;;6.40;91.20;;;6.02;84.13;94930.28;5051196;28;20725;-71
2020/12/29 04:02:40;;;;;;;0.60;0.30;;;6.40;91.20;;;6.08;84.49;94944.19;5073344;28;20635;-72
2020/12/29 04:05:08;;;;;;;0.60;0.40;;;6.40;91.20;;;6.01;85.00;94941.56;5073370;28;20746;-71
2020/12/29 04:07:36;;;;;;;0.50;0.40;;;6.40;91.40;;;6.06;84.61;94952.25;5070082;28;21195;-72
2020/12/29 04:10:04;;;;;;;0.73;0.30;;;6.40;91.40;;;6.12;84.45;94944.72;5071959;28;20709;-72
2020/12/29 04:12:33;;;;;;;0.50;0.33;;;6.50;91.40;;;6.02;84.80;94953.56;5071557;28;21012;-72
2020/12/29 04:15:01;;;;;;;0.40;0.30;;;6.40;91.30;;;5.89;84.70;94948.78;5052009;28;20638;-71
2020/12/29 04:17:33;;;;;;;0.40;0.37;;;6.30;91.80;;;5.84;85.32;94963.94;5072653;28;20722;-71
2020/12/29 04:20:01;;;;;;;0.40;0.30;;;6.20;91.60;;;5.79;85.85;94958.44;5070078;28;20723;-72
2020/12/29 04:22:30;;;;;;;0.53;0.40;;;6.20;91.90;;;5.86;85.54;94954.25;5072420;28;20740;-71
2020/12/29 04:25:00;;;;;;;1.00;0.40;;;6.20;91.90;;;5.85;85.49;94963.00;5068301;28;20654;-72
2020/12/29 04:27:27;;;;;;;0.57;0.40;;;6.20;91.70;;;5.84;84.58;94957.97;5073516;28;21276;-71
2020/12/29 04:29:55;;;;;;;1.07;0.33;;;6.20;91.50;;;5.82;84.80;94957.31;5069017;28;20640;-71
2020/12/29 04:32:22;;;;;;;1.23;0.30;;;6.20;91.40;;;5.83;84.31;94970.09;5070398;28;20624;-72
2020/12/29 04:34:50;;;;;;;0.50;0.30;;;6.20;91.50;;;5.79;84.78;94958.44;5072633;28;21222;-72
2020/12/29 04:37:30;;;;;;;0.80;0.40;;;6.20;91.40;;;5.76;85.05;94947.59;5070638;28;20642;-71
2020/12/29 04:39:58;;;;;;;1.00;0.40;;;6.10;91.60;;;5.78;85.32;94956.00;5065908;28;20742;-71
2020/12/29 04:42:29;;;;;;;1.00;0.40;;;6.10;91.70;;;5.82;84.19;94949.56;5069041;28;21204;-72
2020/12/29 04:44:56;;;;;;;0.90;0.40;;;6.20;91.60;;;5.87;84.97;94962.84;5069212;28;21223;-72
2020/12/29 04:47:28;;;;;;;0.80;0.47;;;6.20;91.60;;;5.86;84.96;94963.78;5073249;28;20629;-72
2020/12/29 04:49:56;;;;;;;0.80;0.40;;;6.20;91.40;;;5.90;84.70;94967.72;5075328;28;20635;-72
2020/12/29 04:52:25;;;;;;;0.77;0.37;;;6.30;91.60;;;5.89;84.81;94966.88;5069131;28;20697;-71
2020/12/29 04:54:56;;;;;;;1.70;0.53;;;6.30;91.50;;;5.79;85.49;94962.81;5074361;28;20655;-72
2020/12/29 04:57:25;;;;;;;1.47;0.40;;;6.10;91.50;;;5.76;84.71;94978.63;5051201;28;20627;-71
2020/12/29 04:59:53;;;;;;;1.83;0.40;;;6.10;91.60;;;5.74;84.57;94986.53;5071466;28;21236;-72
2020/12/29 05:02:21;;;;;;;1.23;0.37;;;6.10;91.50;;;5.75;84.73;94989.91;5069542;28;21439;-72
2020/12/29 05:04:49;;;;;;;2.90;0.37;;;6.10;91.70;;;5.75;84.96;94989.91;5079300;28;20761;-71
2020/12/29 05:07:16;;;;;;;1.10;0.40;;;6.20;91.70;;;5.71;84.60;94988.56;5051324;28;20638;-71
2020/12/29 05:09:44;;;;;;;1.63;0.40;;;6.10;91.50;;;5.70;84.49;94994.69;5069812;28;20628;-71
2020/12/29 05:12:16;;;;;;;0.50;0.40;;;6.00;91.60;;;5.67;84.22;95000.97;5071296;28;21209;-71
2020/12/29 05:14:45;;;;;;;0.60;0.30;;;6.00;91.60;;;5.71;85.19;94991.13;5070480;28;20640;-71
2020/12/29 05:17:13;;;;;;;0.70;0.50;;;6.00;91.60;;;5.57;84.74;95002.03;5069304;28;20632;-72
2020/12/29 05:19:42;;;;;;;0.83;0.40;;;5.90;91.50;;;5.61;84.82;95000.78;5069306;28;21076;-72
2020/12/29 05:22:09;;;;;;;0.40;0.30;;;5.90;91.60;;;5.54;84.24;95004.91;5068265;28;20686;-72
2020/12/29 05:24:57;;;;;;;0.60;0.43;;;5.90;91.60;;;5.53;84.96;95012.81;5060114;28;20664;-72
2020/12/29 05:27:26;;;;;;;1.17;0.50;;;5.90;91.80;;;5.49;85.99;95012.31;5072397;28;21227;-72
2020/12/29 05:29:55;;;;;;;2.03;0.50;;;5.90;92.00;;;5.46;85.72;95016.94;5066249;28;20631;-71
2020/12/29 05:32:24;;;;;;;1.07;0.40;;;5.80;92.20;;;5.46;86.20;95010.03;5052341;28;20697;-71
2020/12/29 05:34:58;;;;;;;1.37;0.30;;;5.80;92.40;;;5.41;86.47;95014.84;5070736;28;20705;-72
2020/12/29 05:37:26;;;;;;;0.80;0.50;;;5.70;92.30;;;5.45;86.05;95021.31;5054771;28;21246;-72
2020/12/29 05:39:53;;;;;;;1.00;0.40;;;5.80;92.60;;;5.45;86.19;95016.16;5074288;28;21066;-72
2020/12/29 05:42:26;;;;;;;0.60;0.40;;;5.80;92.60;;;5.47;86.54;95029.72;5050648;28;20667;-71
2020/12/29 05:44:54;;;;;;;1.90;0.70;;;5.80;92.60;;;5.53;85.32;95008.44;5070074;28;20701;-71
2020/12/29 05:47:23;;;;;;;0.50;0.40;;;5.90;92.40;;;5.57;85.04;95030.47;5067751;28;20652;-72
2020/12/29 05:49:51;;;;;;;0.50;0.40;;;5.90;92.20;;;5.61;85.15;95031.78;5070448;28;20746;-71
2020/12/29 05:52:19;;;;;;;1.20;0.60;;;5.90;92.10;;;5.62;85.70;95043.72;5069095;28;20674;-71
2020/12/29 05:54:49;;;;;;;0.67;0.40;;;6.00;92.00;;;5.60;84.89;95039.69;5052172;28;20795;-71
2020/12/29 05:57:16;;;;;;;0.50;0.43;;;6.00;91.80;;;5.60;85.04;95044.88;5066619;28;20643;-71
2020/12/29 05:59:46;;;;;;;3.60;0.60;;;5.90;91.70;;;5.58;84.86;95046.75;5073815;28;20623;-71
2020/12/29 06:02:14;;;;;;;0.70;0.40;;;5.90;91.70;;;5.53;85.64;95039.44;5073111;28;20624;-71
2020/12/29 06:04:43;;;;;;;0.80;0.40;;;5.90;91.90;;;5.50;85.28;95054.47;5070494;28;21033;-71
2020/12/29 06:07:12;;;;;;;1.57;0.60;;;5.80;91.90;;;5.47;85.28;95050.38;5071239;28;21197;-71
2020/12/29 06:09:44;;;;;;;0.70;0.40;;;5.80;92.50;;;5.47;86.08;95054.75;5072401;28;20642;-71
2020/12/29 06:12:31;;;;;;;2.87;0.60;;;5.80;92.30;;;5.41;86.66;95076.84;5051944;28;21243;-71
2020/12/29 06:14:58;;;;;;;3.73;0.53;;;5.80;92.40;;;5.39;86.04;95071.00;5069595;28;20619;-72
2020/12/29 06:17:33;;;;;;;0.87;0.60;;;5.80;92.40;;;5.33;86.19;95075.94;5076047;28;21016;-71
2020/12/29 06:20:05;;;;;;;0.70;0.60;;;5.70;92.30;;;5.31;86.50;95081.25;5075950;28;20985;-72
2020/12/29 06:22:34;;;;;;;2.43;0.90;;;5.70;92.40;;;5.25;87.15;95091.38;5074724;28;20647;-72
2020/12/29 06:25:06;;;;;;;1.40;0.70;;;5.60;93.00;;;5.20;87.07;95096.97;5073938;28;20742;-72
2020/12/29 06:27:50;;;;;;;1.43;0.70;;;5.50;93.20;;;5.26;87.61;95093.81;5088941;28;20678;-72
2020/12/29 06:30:20;;;;;;;1.07;0.60;;;5.60;93.10;;;5.24;87.49;95111.22;5068134;28;22514;-72
2020/12/29 06:32:49;;;;;;;0.90;0.60;;;5.50;93.10;;;5.20;87.84;95109.91;5073860;28;20689;-71
2020/12/29 06:35:18;;;;;;;0.40;0.40;;;5.50;93.20;;;5.18;87.75;95124.69;5073067;28;21627;-70
2020/12/29 06:37:55;;;;;;;1.30;0.60;;;5.50;93.10;;;5.16;87.92;95124.03;5072271;28;20722;-70
2020/12/29 06:40:23;;;;;;;0.70;0.50;;;5.50;93.70;;;5.19;87.46;95136.66;5056302;28;20639;-71
2020/12/29 06:42:51;;;;;;;0.50;0.40;;;5.50;93.50;;;5.14;87.92;95144.03;5070616;28;20731;-71
2020/12/29 06:45:18;;;;;;;1.37;0.83;;;5.50;93.50;;;5.08;88.44;95156.69;5072635;28;20650;-72
2020/12/29 06:47:47;;;;;;;1.80;0.70;;;5.40;93.80;;;5.04;88.00;95168.28;5074175;28;21198;-72
2020/12/29 06:50:24;;;;;;;1.70;0.80;;;5.40;93.90;;;5.00;88.61;95173.88;5071793;28;20693;-72
2020/12/29 06:53:00;;;;;;;0.67;0.53;;;5.30;94.10;;;5.05;89.20;95174.25;5037063;28;20663;-71
2020/12/29 06:55:35;;;;;;;1.47;0.87;;;5.40;94.10;;;4.98;88.92;95170.66;5074723;28;20716;-71
2020/12/29 06:58:04;;;;;;;0.77;0.57;;;5.30;94.20;;;5.00;88.57;95177.28;5069968;28;20664;-72
2020/12/29 07:00:35;;;;;;;0.80;0.60;;;5.40;94.30;;;5.00;88.97;95186.78;5072753;28;20631;-71
2020/12/29 07:03:04;;;;;;;2.07;0.67;;;5.30;94.20;;;5.03;89.14;95184.72;5067319;28;20647;-71
2020/12/29 07:05:37;;;;;;;3.97;0.80;;;5.40;94.10;;;5.06;88.28;95183.63;5074137;28;20698;-70
2020/12/29 07:08:05;;;;;;;0.90;0.70;;;5.40;94.10;;;5.01;89.31;95193.59;5071716;28;20623;-71
2020/12/29 07:10:35;;;;;;;1.30;0.63;;;5.40;94.20;;;5.02;89.15;95208.94;5054170;28;20667;-71
2020/12/29 07:13:10;;;;;;;1.27;0.53;;;5.40;94.40;;;5.05;88.55;95220.75;5052495;28;20630;-72
2020/12/29 07:15:46;;;;;;;0.60;0.60;;;5.40;94.50;;;5.23;88.16;95246.50;5072376;28;20728;-71
2020/12/29 07:18:19;;;;;;;0.90;0.60;;;5.50;94.40;;;5.33;87.95;95249.03;5065231;28;20635;-71
2020/12/29 07:20:49;;;;;;;1.40;1.10;;;5.60;94.20;;;5.30;88.70;95255.28;5055839;28;20689;-71
2020/12/29 07:23:18;;;;;;;2.43;0.80;;;5.70;94.10;;;5.29;88.18;95269.19;5054830;28;20671;-71
2020/12/29 07:25:48;;;;;;;1.03;0.70;;;5.70;94.00;;;5.32;88.07;95276.63;5054706;28;20754;-71
2020/12/29 07:28:19;;;;;;;1.30;0.60;;;5.70;93.80;;;5.25;88.09;95277.34;5055659;28;20646;-72
2020/12/29 07:30:47;;;;;;;1.60;0.40;;;5.70;93.60;;;5.23;87.26;95289.56;5066706;28;20639;-71
2020/12/29 07:33:15;;;;;;;0.60;0.50;;;5.70;93.60;;;5.24;88.11;95294.59;5073327;28;21201;-71
2020/12/29 07:35:43;;;;;;;1.03;0.50;;;5.70;93.70;;;5.28;88.16;95308.06;5057501;28;20634;-71
2020/12/29 07:38:15;;;;;;;0.50;0.40;;;5.70;93.60;;;5.29;88.20;95305.34;5083110;28;20642;-71
2020/12/29 07:40:42;;;;;;;0.50;0.50;;;5.70;93.50;;;5.31;88.32;95315.53;5075654;28;20670;-72
2020/12/29 07:43:10;;;;;;;0.70;0.60;;;5.70;93.50;;;5.33;87.29;95323.94;5051078;28;21259;-72
2020/12/29 07:45:38;;;;;;;1.90;1.10;;;5.70;93.40;;;5.31;88.08;95338.78;5069056;28;20664;-72
2020/12/29 07:48:08;;;;;;;0.63;0.60;;;5.70;93.50;;;5.31;88.10;95331.84;5071090;28;21022;-72
2020/12/29 07:50:38;;;;;;;0.90;0.80;;;5.80;93.50;;;5.34;87.33;95343.66;5071358;28;20628;-71
2020/12/29 07:53:08;;;;;;;0.80;0.70;;;5.80;93.40;;;5.28;87.80;95347.63;5071341;28;20643;-72
2020/12/29 07:55:40;;;;;;;1.17;0.87;;;5.80;93.40;;;5.23;87.66;95361.91;5071656;28;20987;-72
2020/12/29 07:58:10;;;;;;;2.30;0.60;;;5.60;93.30;;;5.22;87.25;95375.78;5073954;28;20658;-72
2020/12/29 08:00:39;;;;;;;0.80;0.50;;;5.70;93.30;;;5.11;87.55;95378.50;5073714;28;21061;-71
2020/12/29 08:03:11;;;;;;;0.60;0.50;;;5.60;93.10;;;5.12;87.31;95390.47;5054855;28;20705;-72
2020/12/29 08:05:39;;;;;;;0.50;0.50;;;5.60;93.20;;;5.07;88.41;95407.34;5052602;28;20750;-72
2020/12/29 08:08:09;;;;;;;0.60;0.40;;;5.50;93.30;;;5.08;87.64;95398.63;5071443;28;21200;-73
2020/12/29 08:10:39;;;;;;;1.07;0.87;;;5.50;93.30;;;5.09;88.21;95415.75;5050415;28;20762;-72
2020/12/29 08:13:10;;;;;;;0.83;0.50;;;5.50;93.30;;;5.07;87.23;95421.06;5054747;28;20693;-71
2020/12/29 08:15:39;;;;;;;0.67;0.60;;;5.50;93.30;;;5.07;87.14;95430.59;5063775;28;20631;-71
2020/12/29 08:18:09;;;;;;;0.70;0.60;;;5.50;93.40;;;5.08;88.20;95432.19;5061094;28;20659;-72
2020/12/29 08:20:45;;;;;;;1.60;0.67;;;5.50;93.30;;;5.05;88.12;95427.31;5075694;28;20693;-71
2020/12/29 08:23:13;;;;;;;1.47;1.10;;;5.50;93.30;;;5.06;87.52;95436.69;5068370;28;20670;-72
2020/12/29 08:25:48;;;;;;;3.60;1.90;;;5.50;93.30;;;5.02;88.15;95450.81;5069567;28;20834;-72
2020/12/29 08:28:16;;;;;;;1.30;1.10;;;5.50;93.40;;;5.07;87.60;95464.16;5071604;28;20635;-71
2020/12/29 08:30:43;;;;;;;4.10;3.00;;;5.50;93.80;;;5.06;88.40;95460.75;5072146;28;21236;-71
2020/12/29 08:33:15;;;;;;;2.00;1.40;;;5.50;93.50;;;5.06;88.70;95465.09;5071581;28;20643;-72
2020/12/29 08:35:45;;;;;;;1.60;1.20;;;5.50;93.60;;;5.05;88.21;95466.88;5077629;28;20640;-72
2020/12/29 08:38:30;;;;;;;3.27;2.50;;;5.50;93.60;;;5.07;88.49;95474.50;5053493;28;21150;-72
2020/12/29 08:41:14;;;;;;;3.20;2.27;;;5.50;93.60;;;5.07;88.63;95483.03;5086391;28;20646;-71
2020/12/29 08:43:44;;;;;;;7.00;3.50;;;5.50;93.50;;;5.08;88.05;95483.84;5071279;28;20762;-72
2020/12/29 08:46:14;;;;;;;2.60;1.90;;;5.50;93.60;;;5.10;87.85;95490.53;5070292;28;20790;-71
2020/12/29 08:48:53;;;;;;;6.17;3.03;;;5.50;93.60;;;5.10;88.70;95490.53;5071164;28;21314;-71
2020/12/29 08:51:25;;;;;;;2.23;1.60;;;5.50;93.60;;;5.09;87.76;95501.78;5079224;28;20675;-71
2020/12/29 08:53:53;;;;;;;2.67;1.70;;;5.60;93.70;;;5.10;88.88;95502.59;5068152;28;20643;-71
2020/12/29 08:56:26;;;;;;;3.67;2.40;;;5.60;93.70;;;5.11;88.16;95506.81;5070571;28;21282;-71
2020/12/29 08:58:54;;;;;;;2.90;2.13;;;5.50;93.80;;;5.18;88.28;95522.44;5066086;28;20722;-72
2020/12/29 09:01:36;;;;;;;4.03;3.07;;;5.60;93.80;;;5.22;88.44;95547.06;5067250;28;20635;-71
2020/12/29 09:04:24;;;;;;;1.88;1.40;;;5.70;93.90;;;5.30;88.52;95552.38;5064764;28;20797;-74
2020/12/29 09:07:07;;;;;;;2.50;1.57;;;5.70;93.90;;;5.38;88.96;95551.69;5064849;28;20251;-71
2020/12/29 09:09:37;;;;;;;1.80;1.47;;;5.80;94.00;;;5.40;88.34;95560.94;5049471;28;20646;-71
2020/12/29 09:12:29;;;;;;;4.73;1.47;;;5.80;93.80;;;5.45;88.32;95558.75;5065619;28;20730;-71
2020/12/29 09:14:59;;;;;;;1.83;1.30;;;5.80;93.90;;;5.50;88.27;95564.34;5045413;28;21038;-71
2020/12/29 09:17:29;;;;;;;1.77;1.30;;;5.90;93.90;;;5.56;88.10;95571.53;5062331;28;20671;-71
2020/12/29 09:20:19;;;;;;;2.00;1.40;;;5.90;93.90;;;5.56;88.48;95579.28;5047614;28;20671;-71
2020/12/29 09:22:56;;;;;;;2.00;1.27;;;6.00;93.90;;;5.59;88.15;95584.19;5073852;28;20636;-71
2020/12/29 09:25:27;;;;;;;2.23;1.00;;;6.00;94.10;;;5.63;88.85;95588.94;5069756;28;20655;-71
2020/12/29 09:28:18;;;;;;;2.17;1.53;;;6.00;94.10;;;5.66;88.64;95591.25;5069875;28;20627;-71
2020/12/29 09:30:57;;;;;;;2.10;1.33;;;6.10;94.20;;;5.74;88.91;95604.38;5069901;28;20706;-71
2020/12/29 09:33:26;;;;;;;0.90;0.83;;;6.10;94.30;;;5.75;89.14;95602.59;5065978;28;22544;-70
2020/12/29 09:35:55;;;;;;;0.97;0.67;;;6.10;94.20;;;5.84;88.96;95617.28;5045170;28;20983;-72
2020/12/29 09:38:22;;;;;;;2.00;0.97;;;6.20;94.40;;;5.83;89.46;95619.06;5074105;28;20636;-72
2020/12/29 09:41:03;;;;;;;1.73;1.10;;;6.20;94.50;;;5.87;90.07;95620.41;5044357;28;20644;-72
2020/12/29 09:43:33;;;;;;;3.20;2.03;;;6.20;94.70;;;5.95;89.95;95614.56;5048520;28;20634;-71
2020/12/29 09:46:00;;;;;;;3.90;1.80;;;6.30;95.00;;;6.02;89.65;95628.59;5078486;28;20686;-71
2020/12/29 09:48:28;;;;;;;3.30;2.00;;;6.30;95.00;;;6.14;89.77;95628.28;5078106;28;20723;-71
2020/12/29 09:50:56;;;;;;;3.93;1.50;;;6.40;95.30;;;6.17;89.71;95631.41;5067527;28;20632;-71
2020/12/29 09:53:24;;;;;;;2.33;1.60;;;6.50;95.10;;;6.19;90.02;95642.44;5069330;28;20685;-72
2020/12/29 09:55:51;;;;;;;1.63;1.13;;;6.50;95.20;;;6.06;89.74;95648.03;5075085;28;20628;-72
2020/12/29 09:58:19;;;;;;;1.47;1.10;;;6.40;94.80;;;6.04;90.06;95647.34;5066171;28;20739;-71
2020/12/29 10:00:47;;;;;;;1.43;1.10;;;6.30;94.90;;;6.05;89.83;95661.94;5066884;28;20693;-71
2020/12/29 10:03:15;;;;;;;7.43;5.10;;;6.30;95.10;;;6.06;90.19;95663.53;5070483;28;20702;-71
2020/12/29 10:05:43;;;;;;;5.33;2.03;;;6.30;95.20;;;6.03;90.35;95669.00;5068482;28;20759;-71
2020/12/29 10:08:11;;;;;;;1.60;1.33;;;6.30;95.30;;;5.92;90.17;95675.13;5065610;28;20639;-71
2020/12/29 10:10:39;;;;;;;1.53;1.20;;;6.30;95.30;;;5.85;90.89;95681.81;5070831;28;20615;-71
2020/12/29 10:13:06;;;;;;;1.40;1.03;;;6.20;95.50;;;5.91;90.97;95685.59;5070149;28;20674;-71
2020/12/29 10:15:34;;;;;;;1.30;1.00;;;6.20;95.70;;;5.98;90.58;95692.69;5070078;28;20669;-71
2020/12/29 10:18:03;;;;;;;2.27;1.50;;;6.30;95.70;;;6.08;91.15;95703.03;5067901;28;20656;-71
2020/12/29 10:20:31;;;;;;;3.00;1.30;;;6.40;95.70;;;6.08;90.62;95703.03;5070097;28;21043;-71
2020/12/29 10:22:58;;;;;;;2.83;1.10;;;6.40;95.50;;;6.05;90.93;95713.66;5053314;28;20620;-71
2020/12/29 10:25:26;;;;;;;1.93;1.00;;;6.40;95.60;;;6.18;90.18;95720.22;5072447;28;20716;-72
2020/12/29 10:27:54;;;;;;;1.63;1.10;;;6.50;95.60;;;6.20;90.56;95721.69;5072552;28;21142;-72
2020/12/29 10:30:21;;;;;;;1.97;1.43;;;6.60;95.70;;;6.26;90.10;95723.72;5071279;28;21012;-70
2020/12/29 10:32:49;;;;;;;6.03;3.70;;;6.60;95.60;;;6.32;90.18;95723.19;5050548;28;20628;-70
2020/12/29 10:35:17;;;;;;;2.70;1.80;;;6.70;95.60;;;6.40;89.77;95735.44;5051781;28;20619;-70
2020/12/29 10:37:45;;;;;;;2.47;1.40;;;6.70;95.30;;;6.44;89.03;95747.97;5075332;28;20709;-70
2020/12/29 10:40:13;;;;;;;3.67;2.10;;;6.80;94.90;;;6.42;89.85;95743.88;5082288;28;20640;-70
2020/12/29 10:42:40;;;;;;;1.37;1.20;;;6.80;94.90;;;6.45;89.61;95756.53;5075148;28;20628;-70
2020/12/29 10:45:08;;;;;;;1.70;1.10;;;6.80;94.90;;;6.46;88.67;95760.78;5070873;28;20650;-70